Time;durP1;ratioP1;P1;durP2;ratioP2;P2;SDS_P1;SDS_P2;PMS_P1;PMS_P2;Temp;Humidity;BMP_temperature;BMP_pressure;BME280_temperature;BME280_humidity;BME280_pressure;Samples;Min_cycle;Max_cycle;Signal;HPM_P1;HPM_P2
2022/04/04 00:00:07;;;;;;;5.43;3.20;;;4.00;85.20;;;;;;5095766;28;20134;-78
2022/04/04 00:02:33;;;;;;;4.22;2.40;;;3.90;85.20;;;;;;5096142;28;20151;-77
2022/04/04 00:04:58;;;;;;;7.43;2.63;;;4.00;85.20;;;;;;5095794;28;20588;-78
2022/04/04 00:07:27;;;;;;;5.82;3.03;;;4.00;85.30;;;;;;5078857;28;20100;-78
2022/04/04 00:09:53;;;;;;;6.07;3.33;;;4.10;84.80;;;;;;5095700;28;20044;-77
2022/04/04 00:12:20;;;;;;;7.05;3.40;;;4.10;85.40;;;;;;5078649;28;20119;-77
2022/04/04 00:14:46;;;;;;;5.20;3.15;;;4.10;85.10;;;;;;5095494;28;20046;-78
2022/04/04 00:17:12;;;;;;;10.40;4.53;;;4.10;85.00;;;;;;5062329;28;20487;-77
2022/04/04 00:19:38;;;;;;;6.60;4.43;;;4.20;85.00;;;;;;5095501;28;20047;-77
2022/04/04 00:22:04;;;;;;;8.00;4.72;;;4.10;85.20;;;;;;5095407;28;20043;-78
2022/04/04 00:24:30;;;;;;;8.77;5.10;;;4.30;85.00;;;;;;5078587;28;20047;-77
2022/04/04 00:26:56;;;;;;;7.97;4.72;;;4.30;85.20;;;;;;5095766;28;20036;-77
2022/04/04 00:29:22;;;;;;;8.57;5.18;;;4.30;85.10;;;;;;5078597;28;20043;-78
2022/04/04 00:31:48;;;;;;;9.80;5.80;;;4.40;85.20;;;;;;5095016;28;20100;-77
2022/04/04 00:34:14;;;;;;;7.32;5.90;;;4.40;85.50;;;;;;5095612;28;20040;-77
2022/04/04 00:36:40;;;;;;;9.50;5.43;;;4.40;85.40;;;;;;5078460;28;20611;-78
2022/04/04 00:39:06;;;;;;;11.15;6.20;;;4.50;85.60;;;;;;5095285;28;20092;-78
2022/04/04 00:41:32;;;;;;;8.35;6.18;;;4.50;85.30;;;;;;5095157;28;20032;-78
2022/04/04 00:43:57;;;;;;;11.07;6.38;;;4.60;85.60;;;;;;5095192;28;20134;-77
2022/04/04 00:46:23;;;;;;;12.25;6.47;;;4.50;86.20;;;;;;5095354;28;20036;-77
2022/04/04 00:48:49;;;;;;;12.35;7.25;;;4.60;86.10;;;;;;5095011;28;20487;-77
2022/04/04 00:51:15;;;;;;;12.05;6.88;;;4.60;85.70;;;;;;5095052;28;20422;-78
2022/04/04 00:53:41;;;;;;;13.98;8.10;;;4.60;85.80;;;;;;5095349;28;20038;-77
2022/04/04 00:56:08;;;;;;;16.10;8.90;;;4.60;86.10;;;;;;5078381;28;20176;-78
2022/04/04 00:58:36;;;;;;;14.50;9.10;;;4.60;86.10;;;;;;5094832;28;20058;-77
2022/04/04 01:01:03;;;;;;;12.27;8.18;;;4.70;85.90;;;;;;5078095;28;20035;-78
2022/04/04 01:03:28;;;;;;;11.90;9.15;;;4.70;85.70;;;;;;5094991;28;20043;-77
2022/04/04 01:05:57;;;;;;;11.38;7.53;;;4.70;85.70;;;;;;5094842;28;20044;-78
2022/04/04 01:08:24;;;;;;;12.70;8.88;;;4.80;85.60;;;;;;5078539;28;20122;-78
2022/04/04 01:10:50;;;;;;;14.10;8.88;;;4.80;85.80;;;;;;5095133;28;20441;-78
2022/04/04 01:13:16;;;;;;;13.25;9.70;;;4.80;85.50;;;;;;5078322;28;20077;-77
2022/04/04 01:15:42;;;;;;;14.70;8.85;;;4.90;85.60;;;;;;5095010;28;20071;-78
2022/04/04 01:18:09;;;;;;;14.73;9.45;;;4.80;85.50;;;;;;5094147;28;20047;-78
2022/04/04 01:20:36;;;;;;;14.77;9.23;;;4.90;85.20;;;;;;5094923;28;20035;-77
2022/04/04 01:23:02;;;;;;;11.85;8.82;;;4.90;85.20;;;;;;5095088;28;20097;-77
2022/04/04 01:25:30;;;;;;;11.55;7.82;;;4.90;85.40;;;;;;5094763;28;20043;-77
2022/04/04 01:27:57;;;;;;;16.02;10.23;;;5.00;85.30;;;;;;5098299;28;20044;-77
2022/04/04 01:30:24;;;;;;;16.20;9.85;;;5.00;85.30;;;;;;5098912;28;20063;-77
2022/04/04 01:32:50;;;;;;;17.13;9.85;;;5.00;86.00;;;;;;5098221;28;20043;-77
2022/04/04 01:35:17;;;;;;;18.42;11.30;;;5.00;85.60;;;;;;5098571;28;20476;-78
2022/04/04 01:37:42;;;;;;;15.07;10.68;;;5.00;85.60;;;;;;5098641;28;20521;-78
2022/04/04 01:40:10;;;;;;;15.15;10.43;;;5.10;86.00;;;;;;5098710;28;20044;-78
2022/04/04 01:42:37;;;;;;;16.15;11.02;;;5.00;86.40;;;;;;5081663;28;20082;-78
2022/04/04 01:45:06;;;;;;;18.73;11.23;;;5.00;86.60;;;;;;5098588;28;20043;-77
2022/04/04 01:47:32;;;;;;;18.55;12.30;;;5.00;86.70;;;;;;5081307;28;20040;-77
2022/04/04 01:49:58;;;;;;;18.52;12.20;;;5.00;86.90;;;;;;5081464;28;20035;-77
2022/04/04 01:52:27;;;;;;;19.02;11.13;;;5.10;87.20;;;;;;5081743;28;20040;-78
2022/04/04 01:54:53;;;;;;;17.20;11.60;;;5.10;86.90;;;;;;5098089;28;20036;-78
2022/04/04 01:57:19;;;;;;;16.30;10.70;;;5.10;86.90;;;;;;5098420;28;20035;-78
2022/04/04 01:59:45;;;;;;;19.20;11.63;;;5.10;86.90;;;;;;5081389;28;20126;-77
2022/04/04 02:02:11;;;;;;;18.63;10.60;;;5.10;87.10;;;;;;5081194;28;20046;-78
2022/04/04 02:04:37;;;;;;;17.48;12.07;;;5.20;86.40;;;;;;5098308;28;20040;-78
2022/04/04 02:07:05;;;;;;;18.73;11.60;;;5.20;86.60;;;;;;5098197;28;20075;-77
2022/04/04 02:09:32;;;;;;;13.80;11.10;;;5.20;86.30;;;;;;5098356;28;20122;-77
2022/04/04 02:11:58;;;;;;;15.10;9.60;;;5.30;86.20;;;;;;5097963;28;20137;-78
2022/04/04 02:14:24;;;;;;;16.95;12.30;;;5.30;86.10;;;;;;5064624;28;20067;-78
2022/04/04 02:16:49;;;;;;;19.85;11.40;;;5.20;86.20;;;;;;5081306;28;20031;-78
2022/04/04 02:19:17;;;;;;;18.20;12.68;;;5.30;86.20;;;;;;5080926;28;20039;-78
2022/04/04 02:21:43;;;;;;;19.38;13.00;;;5.30;86.40;;;;;;5097649;28;20040;-78
2022/04/04 02:24:09;;;;;;;14.65;11.57;;;5.30;86.00;;;;;;5097736;28;20035;-78
2022/04/04 02:26:35;;;;;;;17.42;12.15;;;5.30;86.10;;;;;;5097558;28;20491;-78
2022/04/04 02:29:01;;;;;;;18.95;13.60;;;5.30;86.00;;;;;;5080785;28;20036;-77
2022/04/04 02:31:26;;;;;;;19.90;12.95;;;5.40;85.90;;;;;;5080676;28;20465;-77
2022/04/04 02:33:52;;;;;;;21.80;13.73;;;5.30;86.10;;;;;;5064051;28;20122;-78
2022/04/04 02:36:20;;;;;;;21.85;14.15;;;5.30;86.20;;;;;;5097477;28;20039;-78
2022/04/04 02:38:46;;;;;;;13.27;10.45;;;5.40;86.00;;;;;;5096085;28;20047;-78
2022/04/04 02:41:12;;;;;;;19.58;13.20;;;5.40;85.90;;;;;;5097328;28;20580;-78
2022/04/04 02:43:39;;;;;;;18.48;13.05;;;5.40;85.70;;;;;;5080048;28;20059;-78
2022/04/04 02:46:05;;;;;;;18.98;12.70;;;5.50;85.40;;;;;;5080696;28;20105;-78
2022/04/04 02:48:31;;;;;;;18.58;13.05;;;5.50;85.40;;;;;;5096922;28;20043;-78
2022/04/04 02:50:57;;;;;;;19.13;10.98;;;5.50;85.40;;;;;;5097103;28;20036;-78
2022/04/04 02:53:23;;;;;;;16.65;11.88;;;5.50;85.30;;;;;;5097310;28;20042;-78
2022/04/04 02:58:33;;;;;;;19.92;12.88;;;5.60;84.90;;;;;;5097053;28;20046;-78
2022/04/04 03:00:58;;;;;;;16.15;12.40;;;5.60;85.00;;;;;;5096962;28;20039;-78
2022/04/04 03:03:24;;;;;;;19.88;13.20;;;5.60;85.00;;;;;;5079904;28;20403;-78
2022/04/04 03:05:50;;;;;;;19.98;13.60;;;5.60;85.30;;;;;;5080297;28;20043;-78
2022/04/04 03:08:15;;;;;;;16.23;11.40;;;5.60;85.80;;;;;;5080012;28;20447;-78
2022/04/04 03:10:41;;;;;;;20.13;12.80;;;5.70;85.50;;;;;;5063659;28;20032;-77
2022/04/04 03:13:07;;;;;;;20.98;12.70;;;5.60;86.00;;;;;;5079772;28;20040;-77
2022/04/04 03:15:35;;;;;;;18.00;12.63;;;5.70;85.90;;;;;;5079821;28;20085;-77
2022/04/04 03:18:03;;;;;;;18.27;13.90;;;5.60;86.60;;;;;;5096702;28;20075;-77
2022/04/04 03:20:30;;;;;;;23.50;13.52;;;5.60;86.60;;;;;;5096745;28;20047;-77
2022/04/04 03:22:57;;;;;;;16.98;11.70;;;5.60;86.60;;;;;;5096825;28;20089;-76
2022/04/04 03:25:23;;;;;;;20.42;12.77;;;5.60;86.90;;;;;;5096563;28;20544;-77
2022/04/04 03:27:50;;;;;;;16.77;10.32;;;5.60;86.80;;;;;;5079441;28;20096;-76
2022/04/04 03:30:27;;;;;;;18.60;13.25;;;5.80;86.60;;;;;;5079670;28;20089;-76
2022/04/04 03:33:00;;;;;;;17.60;10.90;;;5.70;87.00;;;;;;5096447;28;20481;-76
2022/04/04 03:35:28;;;;;;;10.27;6.50;;;5.70;86.90;;;;;;5096640;28;20071;-76
2022/04/04 03:37:56;;;;;;;13.73;6.55;;;5.80;86.20;;;;;;5079355;28;20050;-76
2022/04/04 03:40:23;;;;;;;13.27;6.30;;;6.00;85.60;;;;;;5095925;28;20074;-76
2022/04/04 03:42:51;;;;;;;12.10;6.95;;;5.90;85.60;;;;;;5079224;28;20101;-76
2022/04/04 03:45:19;;;;;;;10.10;7.40;;;5.90;85.80;;;;;;5096373;28;20051;-77
2022/04/04 03:47:45;;;;;;;13.35;7.38;;;5.90;86.10;;;;;;5096014;28;20042;-77
2022/04/04 03:50:13;;;;;;;9.38;6.72;;;5.80;86.10;;;;;;5078712;28;20040;-77
2022/04/04 03:52:43;;;;;;;10.82;6.35;;;5.90;86.40;;;;;;5096206;28;20044;-76
2022/04/04 03:55:11;;;;;;;14.45;8.77;;;5.90;85.70;;;;;;5095984;28;20441;-76
2022/04/04 03:57:37;;;;;;;12.40;8.48;;;5.80;86.00;;;;;;5062752;28;20044;-77
2022/04/04 04:00:05;;;;;;;13.60;9.10;;;5.80;85.60;;;;;;5095749;28;20483;-77
2022/04/04 04:02:34;;;;;;;19.83;10.02;;;5.80;85.70;;;;;;5095853;28;20074;-76
2022/04/04 04:05:00;;;;;;;12.00;7.00;;;5.70;86.00;;;;;;5078812;28;20043;-76
2022/04/04 04:07:26;;;;;;;17.48;10.52;;;5.80;86.50;;;;;;5095905;28;20040;-76
2022/04/04 04:09:53;;;;;;;17.55;9.65;;;5.70;86.80;;;;;;5095695;28;20449;-76
2022/04/04 04:12:20;;;;;;;15.00;9.18;;;5.80;87.10;;;;;;5095857;28;20035;-76
2022/04/04 04:14:47;;;;;;;27.80;14.95;;;5.80;87.70;;;;;;5095603;28;20078;-77
2022/04/04 04:17:15;;;;;;;19.80;10.55;;;5.70;88.50;;;;;;5095575;28;20055;-76
2022/04/04 04:22:26;;;;;;;;;;;5.70;88.50;;;;;;5095943;28;20082;-77
2022/04/04 04:24:52;;;;;;;15.25;9.13;;;5.60;88.60;;;;;;5095450;28;19916;-76
2022/04/04 04:27:18;;;;;;;15.75;9.98;;;5.70;88.30;;;;;;5078502;28;20069;-77
2022/04/04 04:29:44;;;;;;;14.20;9.25;;;5.60;88.30;;;;;;5095378;28;20483;-77
2022/04/04 04:32:10;;;;;;;14.40;7.75;;;5.60;88.00;;;;;;5095425;28;20119;-77
2022/04/04 04:34:36;;;;;;;12.05;8.05;;;5.60;88.40;;;;;;5095555;28;20389;-78
2022/04/04 04:37:02;;;;;;;17.33;9.80;;;5.60;88.40;;;;;;5095498;28;20031;-78
2022/04/04 04:39:28;;;;;;;18.33;11.07;;;5.60;88.50;;;;;;5095398;28;20118;-78
2022/04/04 04:41:55;;;;;;;18.60;9.43;;;5.60;88.80;;;;;;5061991;28;20127;-78
2022/04/04 04:44:21;;;;;;;21.30;11.50;;;5.50;89.30;;;;;;5094883;28;20055;-78
2022/04/04 04:46:48;;;;;;;16.95;9.65;;;5.50;89.40;;;;;;5095057;28;20105;-78
2022/04/04 04:49:15;;;;;;;17.73;10.65;;;5.60;89.40;;;;;;5078306;28;20061;-77
2022/04/04 04:51:41;;;;;;;14.05;8.95;;;5.70;88.30;;;;;;5095305;28;20084;-78
2022/04/04 04:54:08;;;;;;;17.40;10.13;;;5.60;88.90;;;;;;5078475;28;20051;-78
2022/04/04 04:56:35;;;;;;;10.60;7.13;;;5.60;89.00;;;;;;5095160;28;20373;-78
2022/04/04 04:59:02;;;;;;;12.48;8.15;;;5.60;88.80;;;;;;5078546;28;20122;-77
2022/04/04 05:01:28;;;;;;;14.73;9.30;;;5.60;88.60;;;;;;5096217;28;20039;-77
2022/04/04 05:03:54;;;;;;;17.77;9.82;;;5.50;88.90;;;;;;5099793;28;20417;-77
2022/04/04 05:06:21;;;;;;;10.23;6.18;;;5.50;89.00;;;;;;5099524;28;20050;-77
2022/04/04 05:08:47;;;;;;;12.80;5.53;;;5.50;88.80;;;;;;5082530;28;20067;-77
2022/04/04 05:11:13;;;;;;;16.65;7.18;;;5.40;89.00;;;;;;5082427;28;20484;-78
2022/04/04 05:13:38;;;;;;;10.65;4.55;;;5.40;88.30;;;;;;5098974;28;20498;-78
2022/04/04 05:16:09;;;;;;;10.23;4.00;;;5.40;87.80;;;;;;5098904;28;20040;-77
2022/04/04 05:18:35;;;;;;;7.75;3.88;;;5.30;87.70;;;;;;5082844;28;20126;-77
2022/04/04 05:21:01;;;;;;;13.73;4.82;;;5.30;87.70;;;;;;5065256;28;20039;-77
2022/04/04 05:23:27;;;;;;;9.80;4.63;;;5.10;88.10;;;;;;5098547;28;20093;-78
2022/04/04 05:25:52;;;;;;;7.90;3.28;;;5.10;88.10;;;;;;5098700;28;20131;-77
2022/04/04 05:28:18;;;;;;;9.07;3.03;;;5.20;88.30;;;;;;5081757;28;20035;-77
2022/04/04 05:30:44;;;;;;;6.18;2.92;;;5.10;88.10;;;;;;5098552;28;20410;-78
2022/04/04 05:33:09;;;;;;;4.47;2.33;;;5.10;88.50;;;;;;5098544;28;20400;-77
2022/04/04 05:35:36;;;;;;;5.57;1.85;;;5.00;88.60;;;;;;5098933;28;20126;-76
2022/04/04 05:38:02;;;;;;;5.72;1.60;;;5.00;88.10;;;;;;5098895;28;20040;-77
2022/04/04 05:40:28;;;;;;;3.97;1.58;;;4.90;88.30;;;;;;5098501;28;20036;-77
2022/04/04 05:42:55;;;;;;;5.80;2.17;;;5.00;87.90;;;;;;5098259;28;20058;-77
2022/04/04 05:45:22;;;;;;;8.00;2.63;;;4.80;88.50;;;;;;5098447;28;20043;-77
2022/04/04 05:47:48;;;;;;;2.85;2.28;;;4.80;88.70;;;;;;5098333;28;20046;-77
2022/04/04 05:50:14;;;;;;;5.18;2.05;;;4.80;88.90;;;;;;5098385;28;20067;-77
2022/04/04 05:52:42;;;;;;;3.22;1.65;;;4.80;89.30;;;;;;5098315;28;20128;-77
2022/04/04 05:55:08;;;;;;;5.15;2.55;;;4.80;89.20;;;;;;5098179;28;20039;-78
2022/04/04 05:57:38;;;;;;;4.70;2.20;;;4.90;89.10;;;;;;5081595;28;20082;-78
2022/04/04 06:00:10;;;;;;;8.93;2.17;;;4.90;88.90;;;;;;5081872;28;20126;-78
2022/04/04 06:02:44;;;;;;;7.00;3.03;;;4.80;89.20;;;;;;5081625;28;20079;-77
2022/04/04 06:05:11;;;;;;;5.90;3.38;;;5.00;89.10;;;;;;5081250;28;20051;-78
2022/04/04 06:07:37;;;;;;;3.88;2.60;;;5.00;89.30;;;;;;5080936;28;20036;-77
2022/04/04 06:10:08;;;;;;;4.38;2.60;;;5.00;89.20;;;;;;5097875;28;20036;-77
2022/04/04 06:12:38;;;;;;;6.38;3.08;;;5.00;89.70;;;;;;5080821;28;20035;-77
2022/04/04 06:15:04;;;;;;;6.53;3.50;;;5.10;89.80;;;;;;5097912;28;20035;-77
2022/04/04 06:17:30;;;;;;;11.95;4.18;;;5.00;90.20;;;;;;5097861;28;20039;-77
2022/04/04 06:19:56;;;;;;;8.73;4.07;;;5.10;90.30;;;;;;5097806;28;20046;-77
2022/04/04 06:22:22;;;;;;;6.80;4.22;;;5.10;90.20;;;;;;5097790;28;20122;-77
2022/04/04 06:24:49;;;;;;;13.18;5.40;;;5.10;90.60;;;;;;5097713;28;20079;-78
2022/04/04 06:27:15;;;;;;;14.30;5.47;;;5.10;90.90;;;;;;5080884;28;20043;-78
2022/04/04 06:29:42;;;;;;;12.90;6.28;;;5.10;90.80;;;;;;5097614;28;20484;-76
2022/04/04 06:32:09;;;;;;;9.73;6.25;;;5.20;90.90;;;;;;5063998;28;20039;-76
2022/04/04 06:34:35;;;;;;;9.80;6.13;;;5.10;91.40;;;;;;5080898;28;20075;-76
2022/04/04 06:37:00;;;;;;;14.68;7.55;;;5.20;91.50;;;;;;5080386;28;20082;-77
2022/04/04 06:39:26;;;;;;;17.58;9.07;;;5.30;91.30;;;;;;5080648;28;20122;-77
2022/04/04 06:41:52;;;;;;;13.90;7.10;;;5.30;91.40;;;;;;5097333;28;20035;-77
2022/04/04 06:44:17;;;;;;;20.70;10.77;;;5.30;91.60;;;;;;5097057;28;20115;-77
2022/04/04 06:46:46;;;;;;;18.48;8.05;;;5.50;91.50;;;;;;5097423;28;20395;-77
2022/04/04 06:49:11;;;;;;;11.02;7.50;;;5.50;91.30;;;;;;5080588;28;20571;-77
2022/04/04 06:51:37;;;;;;;14.57;7.57;;;5.60;90.80;;;;;;5097170;28;20122;-76
2022/04/04 06:54:05;;;;;;;16.05;7.57;;;5.70;90.90;;;;;;5080578;28;20032;-77
2022/04/04 06:56:32;;;;;;;13.35;7.10;;;5.70;90.80;;;;;;5097096;28;20039;-78
2022/04/04 06:58:58;;;;;;;11.15;6.72;;;5.80;90.90;;;;;;5097092;28;20081;-78
2022/04/04 07:01:24;;;;;;;13.27;7.63;;;5.80;91.00;;;;;;5080430;28;20058;-76
2022/04/04 07:03:49;;;;;;;15.60;9.38;;;5.80;91.00;;;;;;5080194;28;20479;-76
2022/04/04 07:06:16;;;;;;;19.02;9.90;;;5.80;91.20;;;;;;5097129;28;20093;-76
2022/04/04 07:08:43;;;;;;;15.30;9.15;;;5.80;91.30;;;;;;5096750;28;20046;-76
2022/04/04 07:11:10;;;;;;;19.15;8.82;;;5.80;92.00;;;;;;5097058;28;20032;-76
2022/04/04 07:13:37;;;;;;;15.43;7.45;;;5.90;91.60;;;;;;5096981;28;20396;-77
2022/04/04 07:16:04;;;;;;;15.57;9.43;;;5.90;91.80;;;;;;5096702;28;20502;-77
2022/04/04 07:18:30;;;;;;;14.45;8.05;;;6.00;91.90;;;;;;5079865;28;20061;-76
2022/04/04 07:20:55;;;;;;;17.45;9.07;;;5.90;92.60;;;;;;5096745;28;20068;-76
2022/04/04 07:23:21;;;;;;;13.30;8.40;;;5.90;92.30;;;;;;5079476;28;20502;-76
2022/04/04 07:25:50;;;;;;;13.73;7.03;;;5.90;92.40;;;;;;5096045;28;20462;-76
2022/04/04 07:28:15;;;;;;;13.65;8.15;;;5.90;92.80;;;;;;5096379;28;20050;-77
2022/04/04 07:30:43;;;;;;;13.38;6.75;;;6.00;92.70;;;;;;5063160;28;20035;-76
2022/04/04 07:33:09;;;;;;;13.75;8.38;;;6.00;92.70;;;;;;5096395;28;20078;-76
2022/04/04 07:35:36;;;;;;;14.88;8.00;;;6.10;92.70;;;;;;5096300;28;20523;-77
2022/04/04 07:38:01;;;;;;;12.25;6.05;;;6.00;92.70;;;;;;5079753;28;20040;-77
2022/04/04 07:40:28;;;;;;;11.98;7.65;;;6.10;92.70;;;;;;5096393;28;20519;-77
2022/04/04 07:42:54;;;;;;;13.10;6.65;;;6.00;92.90;;;;;;5078778;28;20067;-76
2022/04/04 07:45:20;;;;;;;11.65;6.68;;;6.00;93.10;;;;;;5096545;28;20062;-76
2022/04/04 07:47:49;;;;;;;12.45;8.38;;;6.00;92.90;;;;;;5096332;28;20483;-77
2022/04/04 07:50:15;;;;;;;7.60;5.32;;;6.10;93.10;;;;;;5095968;28;20095;-77
2022/04/04 07:52:41;;;;;;;13.05;8.77;;;6.00;93.40;;;;;;5096052;28;20550;-77
2022/04/04 07:55:09;;;;;;;10.43;5.95;;;6.00;93.50;;;;;;5079452;28;20120;-76
2022/04/04 07:57:35;;;;;;;10.02;6.63;;;6.10;93.50;;;;;;5079318;28;20035;-76
2022/04/04 08:00:01;;;;;;;15.07;8.95;;;6.10;93.50;;;;;;5095673;28;20537;-76
2022/04/04 08:02:26;;;;;;;6.97;4.22;;;6.00;93.60;;;;;;5062688;28;20035;-76
2022/04/04 08:04:52;;;;;;;11.45;6.30;;;6.10;93.70;;;;;;5095708;28;20476;-77
2022/04/04 08:07:19;;;;;;;12.88;5.85;;;6.10;93.70;;;;;;5095951;28;20039;-77
2022/04/04 08:09:46;;;;;;;13.45;6.88;;;6.10;93.90;;;;;;5062381;28;20047;-77
2022/04/04 08:12:12;;;;;;;11.05;6.57;;;6.10;93.90;;;;;;5095647;28;20495;-77
2022/04/04 08:14:39;;;;;;;12.70;7.05;;;6.10;93.90;;;;;;5095695;28;20118;-76
2022/04/04 08:17:05;;;;;;;11.00;5.90;;;6.20;93.90;;;;;;5095604;28;20039;-77
2022/04/04 08:19:31;;;;;;;11.15;5.07;;;6.20;93.80;;;;;;5095904;28;20042;-77
2022/04/04 08:21:57;;;;;;;10.07;7.20;;;6.20;93.80;;;;;;5078920;28;20039;-77
2022/04/04 08:24:23;;;;;;;10.93;5.18;;;6.10;94.10;;;;;;5097489;28;20448;-77
2022/04/04 08:26:49;;;;;;;13.05;4.80;;;6.30;94.00;;;;;;5096958;28;20047;-78
2022/04/04 08:29:15;;;;;;;9.82;6.03;;;6.30;93.90;;;;;;5081040;28;20407;-78
2022/04/04 08:31:41;;;;;;;12.68;6.28;;;6.30;93.80;;;;;;5080465;28;20042;-78
2022/04/04 08:34:07;;;;;;;9.75;3.85;;;6.30;94.00;;;;;;5095699;28;20467;-78
2022/04/04 08:36:33;;;;;;;9.27;4.55;;;6.40;93.80;;;;;;5095270;28;20071;-78
2022/04/04 08:38:59;;;;;;;5.35;4.00;;;6.50;93.60;;;;;;5095290;28;20081;-78
2022/04/04 08:41:25;;;;;;;8.63;3.28;;;6.40;93.60;;;;;;5095195;28;20043;-78
2022/04/04 08:43:57;;;;;;;9.20;5.13;;;6.50;93.30;;;;;;5095086;28;20059;-77
2022/04/04 08:46:23;;;;;;;8.95;3.92;;;6.40;93.60;;;;;;5078368;28;20126;-78
2022/04/04 08:48:49;;;;;;;7.90;4.65;;;6.40;93.70;;;;;;5078246;28;20185;-78
2022/04/04 08:51:16;;;;;;;6.85;4.07;;;6.50;93.70;;;;;;5078277;28;20126;-77
2022/04/04 08:53:42;;;;;;;6.53;3.22;;;6.50;93.60;;;;;;5095379;28;20387;-78
2022/04/04 08:56:11;;;;;;;5.05;4.30;;;6.50;93.70;;;;;;5095430;28;20035;-78
2022/04/04 08:58:38;;;;;;;9.88;4.40;;;6.60;93.60;;;;;;5095081;28;20127;-78
2022/04/04 09:01:04;;;;;;;7.13;3.70;;;6.60;93.60;;;;;;5094952;28;20510;-78
2022/04/04 09:03:31;;;;;;;7.32;4.00;;;6.60;93.70;;;;;;5095071;28;20040;-78
2022/04/04 09:06:05;;;;;;;8.65;3.70;;;6.70;93.40;;;;;;5078412;28;20043;-78
2022/04/04 09:08:42;;;;;;;;;;;6.60;93.70;;;;;;5095548;28;20105;-78
2022/04/04 09:11:08;;;;;;;5.68;3.67;;;6.80;93.70;;;;;;5078168;28;19915;-78
2022/04/04 09:13:34;;;;;;;7.47;3.83;;;6.70;93.70;;;;;;5078188;28;20092;-78
2022/04/04 09:16:02;;;;;;;5.95;3.13;;;6.80;93.70;;;;;;5095131;28;20047;-78
2022/04/04 09:18:37;;;;;;;9.07;3.60;;;6.80;93.80;;;;;;5077852;28;20089;-77
2022/04/04 09:21:04;;;;;;;7.28;2.78;;;6.80;93.50;;;;;;5078079;28;20396;-78
2022/04/04 09:23:54;;;;;;;8.30;3.85;;;6.80;93.40;;;;;;5078217;28;20036;-78
2022/04/04 09:26:29;;;;;;;7.82;3.15;;;6.80;93.70;;;;;;5095127;28;20483;-78
2022/04/04 09:28:56;;;;;;;9.95;4.70;;;6.90;93.60;;;;;;5094754;28;20577;-78
2022/04/04 09:31:21;;;;;;;9.02;3.00;;;6.90;93.50;;;;;;5094709;28;20039;-78
2022/04/04 09:33:47;;;;;;;6.88;3.20;;;7.00;93.70;;;;;;5077956;28;20039;-78
2022/04/04 09:36:13;;;;;;;4.30;2.28;;;7.00;93.80;;;;;;5094788;28;20032;-78
2022/04/04 09:38:43;;;;;;;8.80;3.50;;;7.00;93.80;;;;;;5077917;28;20050;-78
2022/04/04 09:41:15;;;;;;;8.80;4.38;;;7.00;93.70;;;;;;5094721;28;20043;-78
2022/04/04 09:43:54;;;;;;;8.27;3.70;;;7.00;94.10;;;;;;5094677;28;20055;-78
2022/04/04 09:46:21;;;;;;;8.32;3.90;;;7.10;93.90;;;;;;5077846;28;20051;-78
2022/04/04 09:49:07;;;;;;;9.25;2.97;;;7.00;94.00;;;;;;5097780;28;20039;-78
2022/04/04 09:51:41;;;;;;;7.53;3.30;;;7.10;94.00;;;;;;5098586;28;20084;-78
2022/04/04 09:54:10;;;;;;;8.50;2.80;;;7.10;93.90;;;;;;5098372;28;20484;-78
2022/04/04 09:56:37;;;;;;;6.60;2.92;;;7.10;94.00;;;;;;5081386;28;20036;-77
2022/04/04 09:59:03;;;;;;;8.15;3.80;;;7.00;94.20;;;;;;5064811;28;20047;-79
2022/04/04 10:01:32;;;;;;;6.55;2.20;;;7.00;94.40;;;;;;5098465;28;20384;-78
2022/04/04 10:03:59;;;;;;;6.13;1.80;;;7.10;94.30;;;;;;5097955;28;20077;-78
2022/04/04 10:06:27;;;;;;;5.40;1.90;;;7.10;94.40;;;;;;5080936;28;20075;-78
2022/04/04 10:08:56;;;;;;;8.63;2.80;;;7.10;94.40;;;;;;5098065;28;20403;-78
2022/04/04 10:11:26;;;;;;;11.80;2.92;;;7.10;94.50;;;;;;5097994;28;20077;-77
2022/04/04 10:13:54;;;;;;;8.30;2.85;;;7.20;94.60;;;;;;5098229;28;20027;-78
2022/04/04 10:16:26;;;;;;;10.48;3.17;;;7.10;94.60;;;;;;5081024;28;20035;-78
2022/04/04 10:18:57;;;;;;;3.45;1.30;;;7.10;94.70;;;;;;5097932;28;20044;-78
2022/04/04 10:21:25;;;;;;;8.68;2.78;;;7.20;94.70;;;;;;5097823;28;20036;-77
2022/04/04 10:23:55;;;;;;;5.43;2.20;;;7.10;94.60;;;;;;5097593;28;20509;-77
2022/04/04 10:26:25;;;;;;;5.93;1.45;;;7.20;94.70;;;;;;5097748;28;20040;-77
2022/04/04 10:28:50;;;;;;;4.88;1.90;;;7.30;94.50;;;;;;5097753;28;20611;-78
2022/04/04 10:31:21;;;;;;;8.13;2.28;;;7.30;94.60;;;;;;5080801;28;20043;-78
2022/04/04 10:33:50;;;;;;;7.07;2.15;;;7.30;94.60;;;;;;5097581;28;20039;-78
2022/04/04 10:36:24;;;;;;;5.63;2.65;;;7.40;94.70;;;;;;5080817;28;20032;-78
2022/04/04 10:38:55;;;;;;;4.47;1.45;;;7.40;94.70;;;;;;5097470;28;20043;-78
2022/04/04 10:41:30;;;;;;;13.90;2.00;;;7.30;94.80;;;;;;5097413;28;20163;-77
2022/04/04 10:43:56;;;;;;;;;;;7.30;94.90;;;;;;5094284;28;20088;-77
2022/04/04 10:46:24;;;;;;;3.45;1.02;;;7.40;94.80;;;;;;5093966;28;19976;-77
2022/04/04 10:48:51;;;;;;;6.20;1.80;;;7.40;94.90;;;;;;5077018;28;20048;-76
2022/04/04 10:51:18;;;;;;;2.05;1.30;;;7.40;94.80;;;;;;5094104;28;20510;-77
2022/04/04 10:53:44;;;;;;;4.35;1.85;;;7.50;94.90;;;;;;5077154;28;20028;-78
2022/04/04 10:56:15;;;;;;;6.57;1.40;;;7.50;94.90;;;;;;5076955;28;20040;-78
2022/04/04 10:58:40;;;;;;;2.50;1.42;;;7.50;95.10;;;;;;5092729;28;20131;-77
2022/04/04 11:01:16;;;;;;;4.47;1.67;;;7.50;95.10;;;;;;5076689;28;20123;-77
2022/04/04 11:03:42;;;;;;;4.75;1.70;;;7.50;95.10;;;;;;5077141;28;20397;-78
2022/04/04 11:09:26;;;;;;;3.72;1.73;;;7.60;95.10;;;;;;5093483;28;20063;-78
2022/04/04 11:12:08;;;;;;;2.92;1.52;;;7.70;95.10;;;;;;5092727;28;20052;-77
2022/04/04 11:14:39;;;;;;;3.15;1.40;;;7.60;95.20;;;;;;5076553;28;20051;-78
2022/04/04 11:20:00;;;;;;;6.68;2.20;;;7.70;95.10;;;;;;5093253;28;20048;-78
2022/04/04 11:22:34;;;;;;;3.50;1.63;;;7.70;95.30;;;;;;5093605;28;20036;-77
2022/04/04 11:25:05;;;;;;;4.10;1.95;;;7.80;95.20;;;;;;5093603;28;20131;-79
2022/04/04 11:27:36;;;;;;;3.15;1.98;;;7.80;95.40;;;;;;5093157;28;20198;-77
2022/04/04 11:30:08;;;;;;;3.47;1.92;;;7.80;95.40;;;;;;5076449;28;20035;-78
2022/04/04 11:32:38;;;;;;;5.25;2.30;;;8.00;95.30;;;;;;5093111;28;20495;-78
2022/04/04 11:35:12;;;;;;;3.65;2.10;;;7.90;95.40;;;;;;5093290;28;20388;-78
2022/04/04 11:37:46;;;;;;;4.07;2.30;;;8.00;95.40;;;;;;5093063;28;20042;-78
2022/04/04 11:40:14;;;;;;;;;;;8.00;95.40;;;;;;5076397;28;20047;-78
2022/04/04 11:42:42;;;;;;;6.22;3.40;;;8.00;95.40;;;;;;5076054;28;19916;-77
2022/04/04 11:45:08;;;;;;;7.20;3.92;;;8.10;95.40;;;;;;5092659;28;20048;-79
2022/04/04 11:47:39;;;;;;;8.23;4.90;;;8.10;95.50;;;;;;5092923;28;20412;-77
2022/04/04 11:50:06;;;;;;;6.35;3.42;;;8.10;95.40;;;;;;5076093;28;20078;-77
2022/04/04 11:52:46;;;;;;;10.05;4.40;;;8.10;95.40;;;;;;5076128;28;20036;-79
2022/04/04 11:55:17;;;;;;;6.13;3.35;;;8.10;95.40;;;;;;5075763;28;20055;-78
2022/04/04 11:57:46;;;;;;;6.90;3.35;;;8.10;95.50;;;;;;5059063;28;20088;-78
2022/04/04 12:00:16;;;;;;;6.93;3.03;;;8.20;95.40;;;;;;5075593;28;20127;-78
2022/04/04 12:02:43;;;;;;;10.38;4.32;;;8.30;95.40;;;;;;5075874;28;20392;-79
2022/04/04 12:05:12;;;;;;;10.98;5.40;;;8.20;95.50;;;;;;5092738;28;20051;-78
2022/04/04 12:07:39;;;;;;;7.93;4.18;;;8.20;95.50;;;;;;5075424;28;20044;-78
2022/04/04 12:10:05;;;;;;;4.45;2.33;;;8.30;95.50;;;;;;5075297;28;20044;-77
2022/04/04 12:12:31;;;;;;;8.32;4.60;;;8.30;95.60;;;;;;5075790;28;20048;-78
2022/04/04 12:14:56;;;;;;;4.00;3.15;;;8.30;95.40;;;;;;5075429;28;20043;-78
2022/04/04 12:17:26;;;;;;;6.25;3.47;;;8.40;95.50;;;;;;5092235;28;20048;-78
2022/04/04 12:19:52;;;;;;;7.40;4.15;;;8.40;95.60;;;;;;5092238;28;20044;-78
2022/04/04 12:25:05;;;;;;;10.23;5.00;;;8.50;95.70;;;;;;5077926;28;20150;-77
2022/04/04 12:27:32;;;;;;;7.72;4.53;;;8.50;95.70;;;;;;5092077;28;20054;-79
2022/04/04 12:30:08;;;;;;;8.23;4.72;;;8.50;95.80;;;;;;5092109;28;20114;-78
2022/04/04 12:32:37;;;;;;;7.20;4.28;;;8.60;95.70;;;;;;5092135;28;20036;-77
2022/04/04 12:35:08;;;;;;;11.23;5.28;;;8.60;95.80;;;;;;5092052;28;20075;-76
2022/04/04 12:37:43;;;;;;;12.88;6.60;;;8.60;95.80;;;;;;5092035;28;20089;-76
2022/04/04 12:40:15;;;;;;;7.22;3.15;;;8.60;95.70;;;;;;5092082;28;20079;-78
2022/04/04 12:42:42;;;;;;;8.63;5.20;;;8.70;95.70;;;;;;5075013;28;20039;-78
2022/04/04 12:45:08;;;;;;;8.80;3.50;;;8.70;95.60;;;;;;5091720;28;20056;-80
2022/04/04 12:47:34;;;;;;;13.60;6.05;;;8.90;95.50;;;;;;5075015;28;20056;-79
2022/04/04 12:50:14;;;;;;;14.27;5.95;;;8.90;95.60;;;;;;5091795;28;20058;-76
2022/04/04 12:53:01;;;;;;;9.40;4.95;;;8.90;95.50;;;;;;5074993;28;20036;-79
2022/04/04 12:55:28;;;;;;;13.23;6.28;;;9.00;95.40;;;;;;5091992;28;20545;-78
2022/04/04 12:57:54;;;;;;;15.45;8.20;;;9.00;95.50;;;;;;5091731;28;20087;-78
2022/04/04 13:00:35;;;;;;;11.60;5.57;;;8.90;95.50;;;;;;5091572;28;20127;-77
2022/04/04 13:03:52;;;;;;;15.73;6.15;;;9.00;95.50;;;;;;5058945;28;20036;-79
2022/04/04 13:06:20;;;;;;;17.70;6.60;;;9.00;95.30;;;;;;5014285;28;20042;-77